sensor_id;sensor_type;location;lat;lon;timestamp;temperature;humidity
50067;DHT22;35952;52.524;13.340;2023-04-24T00:00:50;12.90;99.90
50067;DHT22;35952;52.524;13.340;2023-04-24T00:03:16;12.90;99.90
50067;DHT22;35952;52.524;13.340;2023-04-24T00:05:42;12.80;99.90
50067;DHT22;35952;52.524;13.340;2023-04-24T00:08:08;12.80;99.90
50067;DHT22;35952;52.524;13.340;2023-04-24T00:10:33;12.80;99.90
50067;DHT22;35952;52.524;13.340;2023-04-24T00:12:59;12.80;99.90
50067;DHT22;35952;52.524;13.340;2023-04-24T00:15:24;12.70;99.90
50067;DHT22;35952;52.524;13.340;2023-04-24T00:17:50;12.70;99.90
50067;DHT22;35952;52.524;13.340;2023-04-24T00:20:15;12.70;99.90
50067;DHT22;35952;52.524;13.340;2023-04-24T00:22:41;12.80;99.90
50067;DHT22;35952;52.524;13.340;2023-04-24T00:25:06;12.70;99.90
50067;DHT22;35952;52.524;13.340;2023-04-24T00:27:32;12.70;99.90
50067;DHT22;35952;52.524;13.340;2023-04-24T00:29:58;12.60;99.90
50067;DHT22;35952;52.524;13.340;2023-04-24T00:32:23;12.60;99.90
50067;DHT22;35952;52.524;13.340;2023-04-24T00:34:49;12.50;99.90
50067;DHT22;35952;52.524;13.340;2023-04-24T00:37:14;12.50;99.90
50067;DHT22;35952;52.524;13.340;2023-04-24T00:39:40;12.50;99.90
50067;DHT22;35952;52.524;13.340;2023-04-24T00:42:11;12.40;99.90
50067;DHT22;35952;52.524;13.340;2023-04-24T00:44:37;12.40;99.90
50067;DHT22;35952;52.524;13.340;2023-04-24T00:47:03;12.40;99.90
50067;DHT22;35952;52.524;13.340;2023-04-24T00:49:28;12.40;99.90
50067;DHT22;35952;52.524;13.340;2023-04-24T00:51:54;12.40;99.90
50067;DHT22;35952;52.524;13.340;2023-04-24T00:54:20;12.40;99.90
50067;DHT22;35952;52.524;13.340;2023-04-24T00:56:46;12.30;99.90
50067;DHT22;35952;52.524;13.340;2023-04-24T00:59:16;12.40;99.90
50067;DHT22;35952;52.524;13.340;2023-04-24T01:01:43;12.50;99.90
50067;DHT22;35952;52.524;13.340;2023-04-24T01:04:09;12.50;99.90
50067;DHT22;35952;52.524;13.340;2023-04-24T01:06:38;12.50;99.90
50067;DHT22;35952;52.524;13.340;2023-04-24T01:09:04;12.50;99.90
50067;DHT22;35952;52.524;13.340;2023-04-24T01:11:30;12.40;99.90
50067;DHT22;35952;52.524;13.340;2023-04-24T01:13:56;12.30;99.90
50067;DHT22;35952;52.524;13.340;2023-04-24T01:16:22;12.20;99.90
50067;DHT22;35952;52.524;13.340;2023-04-24T01:18:48;12.20;99.90
50067;DHT22;35952;52.524;13.340;2023-04-24T01:21:15;12.30;99.90
50067;DHT22;35952;52.524;13.340;2023-04-24T01:23:44;12.30;99.90
50067;DHT22;35952;52.524;13.340;2023-04-24T01:26:09;12.30;99.90
50067;DHT22;35952;52.524;13.340;2023-04-24T01:28:35;12.30;99.90
50067;DHT22;35952;52.524;13.340;2023-04-24T01:31:01;12.40;99.90
50067;DHT22;35952;52.524;13.340;2023-04-24T01:33:26;12.40;99.90
50067;DHT22;35952;52.524;13.340;2023-04-24T01:35:52;12.40;99.90
50067;DHT22;35952;52.524;13.340;2023-04-24T01:38:17;12.50;99.90
50067;DHT22;35952;52.524;13.340;2023-04-24T01:40:43;12.50;99.90
50067;DHT22;35952;52.524;13.340;2023-04-24T01:43:08;12.40;99.90
50067;DHT22;35952;52.524;13.340;2023-04-24T01:45:34;12.30;99.90
50067;DHT22;35952;52.524;13.340;2023-04-24T01:48:00;12.30;99.90
50067;DHT22;35952;52.524;13.340;2023-04-24T01:50:25;12.20;99.90
50067;DHT22;35952;52.524;13.340;2023-04-24T01:52:51;12.20;99.90
50067;DHT22;35952;52.524;13.340;2023-04-24T01:55:17;12.10;99.90
50067;DHT22;35952;52.524;13.340;2023-04-24T01:57:42;12.10;99.90
50067;DHT22;35952;52.524;13.340;2023-04-24T02:00:08;12.20;99.90
50067;DHT22;35952;52.524;13.340;2023-04-24T02:02:34;12.20;99.90
50067;DHT22;35952;52.524;13.340;2023-04-24T02:04:59;12.30;99.90
50067;DHT22;35952;52.524;13.340;2023-04-24T02:07:26;12.20;99.90
50067;DHT22;35952;52.524;13.340;2023-04-24T02:09:51;12.20;99.90
50067;DHT22;35952;52.524;13.340;2023-04-24T02:12:17;12.20;99.90
50067;DHT22;35952;52.524;13.340;2023-04-24T02:14:45;12.10;99.90
50067;DHT22;35952;52.524;13.340;2023-04-24T02:17:10;12.10;99.90
50067;DHT22;35952;52.524;13.340;2023-04-24T02:19:37;12.10;99.90
50067;DHT22;35952;52.524;13.340;2023-04-24T02:22:03;12.00;99.90
50067;DHT22;35952;52.524;13.340;2023-04-24T02:24:28;12.00;99.90
50067;DHT22;35952;52.524;13.340;2023-04-24T02:26:54;11.90;99.90
50067;DHT22;35952;52.524;13.340;2023-04-24T02:29:20;12.00;99.90
50067;DHT22;35952;52.524;13.340;2023-04-24T02:31:45;12.30;99.90
50067;DHT22;35952;52.524;13.340;2023-04-24T02:34:11;12.20;99.90
50067;DHT22;35952;52.524;13.340;2023-04-24T02:36:36;12.20;99.90
50067;DHT22;35952;52.524;13.340;2023-04-24T02:39:02;12.10;99.90
50067;DHT22;35952;52.524;13.340;2023-04-24T02:41:28;12.00;99.90
50067;DHT22;35952;52.524;13.340;2023-04-24T02:43:57;12.10;99.90
50067;DHT22;35952;52.524;13.340;2023-04-24T02:46:23;12.10;99.90
50067;DHT22;35952;52.524;13.340;2023-04-24T02:48:49;12.10;99.90
50067;DHT22;35952;52.524;13.340;2023-04-24T02:51:14;12.10;99.90
50067;DHT22;35952;52.524;13.340;2023-04-24T02:53:40;12.10;99.90
50067;DHT22;35952;52.524;13.340;2023-04-24T02:56:05;12.10;99.90
50067;DHT22;35952;52.524;13.340;2023-04-24T02:58:31;12.10;99.90
50067;DHT22;35952;52.524;13.340;2023-04-24T03:00:57;12.00;99.90
50067;DHT22;35952;52.524;13.340;2023-04-24T03:03:22;12.00;99.90
50067;DHT22;35952;52.524;13.340;2023-04-24T03:05:49;12.00;99.90
50067;DHT22;35952;52.524;13.340;2023-04-24T03:08:14;12.00;99.90
50067;DHT22;35952;52.524;13.340;2023-04-24T03:10:40;12.00;99.90
50067;DHT22;35952;52.524;13.340;2023-04-24T03:13:05;12.10;99.90
50067;DHT22;35952;52.524;13.340;2023-04-24T03:15:31;12.00;99.90
50067;DHT22;35952;52.524;13.340;2023-04-24T03:17:56;12.00;99.90
50067;DHT22;35952;52.524;13.340;2023-04-24T03:20:22;12.00;99.90
50067;DHT22;35952;52.524;13.340;2023-04-24T03:22:48;12.00;99.90
50067;DHT22;35952;52.524;13.340;2023-04-24T03:25:13;12.10;99.90
50067;DHT22;35952;52.524;13.340;2023-04-24T03:27:38;12.20;99.90
50067;DHT22;35952;52.524;13.340;2023-04-24T03:30:06;12.20;99.90
50067;DHT22;35952;52.524;13.340;2023-04-24T03:32:32;12.20;99.90
50067;DHT22;35952;52.524;13.340;2023-04-24T03:34:57;12.20;99.90
50067;DHT22;35952;52.524;13.340;2023-04-24T03:37:23;12.30;99.90
50067;DHT22;35952;52.524;13.340;2023-04-24T03:39:48;12.30;99.90
50067;DHT22;35952;52.524;13.340;2023-04-24T03:42:14;12.50;99.90
50067;DHT22;35952;52.524;13.340;2023-04-24T03:44:40;12.50;99.90
50067;DHT22;35952;52.524;13.340;2023-04-24T03:47:05;12.60;99.90
50067;DHT22;35952;52.524;13.340;2023-04-24T03:49:31;12.60;99.90
50067;DHT22;35952;52.524;13.340;2023-04-24T03:51:57;12.60;99.90
50067;DHT22;35952;52.524;13.340;2023-04-24T03:54:22;12.50;99.90
50067;DHT22;35952;52.524;13.340;2023-04-24T03:56:48;12.50;99.90
50067;DHT22;35952;52.524;13.340;2023-04-24T03:59:13;12.50;99.90
50067;DHT22;35952;52.524;13.340;2023-04-24T04:01:39;12.50;99.90
50067;DHT22;35952;52.524;13.340;2023-04-24T04:04:05;12.50;99.90
50067;DHT22;35952;52.524;13.340;2023-04-24T04:06:31;12.50;99.90
50067;DHT22;35952;52.524;13.340;2023-04-24T04:08:57;12.50;99.90
50067;DHT22;35952;52.524;13.340;2023-04-24T04:11:23;12.50;99.90
50067;DHT22;35952;52.524;13.340;2023-04-24T04:13:48;12.60;99.90
50067;DHT22;35952;52.524;13.340;2023-04-24T04:16:14;12.80;99.90
50067;DHT22;35952;52.524;13.340;2023-04-24T04:18:42;12.80;99.90
50067;DHT22;35952;52.524;13.340;2023-04-24T04:21:07;13.00;99.90
50067;DHT22;35952;52.524;13.340;2023-04-24T04:23:33;12.90;99.90
50067;DHT22;35952;52.524;13.340;2023-04-24T04:25:58;12.90;99.90
50067;DHT22;35952;52.524;13.340;2023-04-24T04:28:25;13.10;99.90
50067;DHT22;35952;52.524;13.340;2023-04-24T04:30:50;13.20;99.90
50067;DHT22;35952;52.524;13.340;2023-04-24T04:33:19;13.00;99.90
50067;DHT22;35952;52.524;13.340;2023-04-24T04:35:45;12.90;99.90
50067;DHT22;35952;52.524;13.340;2023-04-24T04:38:14;12.70;99.90
50067;DHT22;35952;52.524;13.340;2023-04-24T04:40:40;13.00;99.90
50067;DHT22;35952;52.524;13.340;2023-04-24T04:43:06;13.10;99.90
50067;DHT22;35952;52.524;13.340;2023-04-24T04:45:31;13.10;99.90
50067;DHT22;35952;52.524;13.340;2023-04-24T04:47:58;13.00;99.90
50067;DHT22;35952;52.524;13.340;2023-04-24T04:50:26;13.20;99.90
50067;DHT22;35952;52.524;13.340;2023-04-24T04:52:52;13.20;99.90
50067;DHT22;35952;52.524;13.340;2023-04-24T04:55:17;12.90;99.90
50067;DHT22;35952;52.524;13.340;2023-04-24T04:57:45;12.80;99.90
50067;DHT22;35952;52.524;13.340;2023-04-24T05:00:11;13.00;99.90
50067;DHT22;35952;52.524;13.340;2023-04-24T05:02:37;13.00;99.90
50067;DHT22;35952;52.524;13.340;2023-04-24T05:05:03;13.10;99.90
50067;DHT22;35952;52.524;13.340;2023-04-24T05:07:29;13.00;99.90
50067;DHT22;35952;52.524;13.340;2023-04-24T05:09:54;13.10;99.90
50067;DHT22;35952;52.524;13.340;2023-04-24T05:12:20;13.30;99.90
50067;DHT22;35952;52.524;13.340;2023-04-24T05:14:45;13.50;99.90
50067;DHT22;35952;52.524;13.340;2023-04-24T05:17:11;13.50;99.90
50067;DHT22;35952;52.524;13.340;2023-04-24T05:19:36;13.60;99.90
50067;DHT22;35952;52.524;13.340;2023-04-24T05:22:03;13.70;99.90
50067;DHT22;35952;52.524;13.340;2023-04-24T05:24:35;13.50;99.90
50067;DHT22;35952;52.524;13.340;2023-04-24T05:27:01;13.80;99.90
50067;DHT22;35952;52.524;13.340;2023-04-24T05:29:28;14.70;99.90
50067;DHT22;35952;52.524;13.340;2023-04-24T05:31:56;15.20;99.90
50067;DHT22;35952;52.524;13.340;2023-04-24T05:34:21;15.80;99.90
50067;DHT22;35952;52.524;13.340;2023-04-24T05:36:50;16.00;99.90
50067;DHT22;35952;52.524;13.340;2023-04-24T05:39:17;15.50;99.90
50067;DHT22;35952;52.524;13.340;2023-04-24T05:41:42;15.80;99.90
50067;DHT22;35952;52.524;13.340;2023-04-24T05:44:11;16.50;99.90
50067;DHT22;35952;52.524;13.340;2023-04-24T05:46:37;16.90;99.90
50067;DHT22;35952;52.524;13.340;2023-04-24T05:49:02;16.70;99.90
50067;DHT22;35952;52.524;13.340;2023-04-24T05:51:28;16.40;99.90
50067;DHT22;35952;52.524;13.340;2023-04-24T05:53:54;16.60;99.90
50067;DHT22;35952;52.524;13.340;2023-04-24T05:56:20;16.50;99.90
50067;DHT22;35952;52.524;13.340;2023-04-24T05:58:46;16.80;99.90
50067;DHT22;35952;52.524;13.340;2023-04-24T06:01:12;17.30;99.90
50067;DHT22;35952;52.524;13.340;2023-04-24T06:03:40;17.90;99.90
50067;DHT22;35952;52.524;13.340;2023-04-24T06:06:06;18.20;99.90
50067;DHT22;35952;52.524;13.340;2023-04-24T06:08:31;18.30;99.90
50067;DHT22;35952;52.524;13.340;2023-04-24T06:10:58;18.40;99.90
50067;DHT22;35952;52.524;13.340;2023-04-24T06:13:23;19.00;99.90
50067;DHT22;35952;52.524;13.340;2023-04-24T06:15:50;18.90;99.90
50067;DHT22;35952;52.524;13.340;2023-04-24T06:18:16;19.00;99.90
50067;DHT22;35952;52.524;13.340;2023-04-24T06:20:42;18.90;99.90
50067;DHT22;35952;52.524;13.340;2023-04-24T06:23:07;18.90;99.90
50067;DHT22;35952;52.524;13.340;2023-04-24T06:25:33;19.00;99.90
50067;DHT22;35952;52.524;13.340;2023-04-24T06:27:59;19.60;99.90
50067;DHT22;35952;52.524;13.340;2023-04-24T06:30:24;20.10;99.90
50067;DHT22;35952;52.524;13.340;2023-04-24T06:32:50;21.00;99.90
50067;DHT22;35952;52.524;13.340;2023-04-24T06:35:22;22.40;96.90
50067;DHT22;35952;52.524;13.340;2023-04-24T06:37:47;23.80;88.60
50067;DHT22;35952;52.524;13.340;2023-04-24T06:40:13;24.50;80.70
50067;DHT22;35952;52.524;13.340;2023-04-24T06:42:39;24.90;72.00
50067;DHT22;35952;52.524;13.340;2023-04-24T06:45:05;25.10;64.80
50067;DHT22;35952;52.524;13.340;2023-04-24T06:47:31;25.00;63.80
50067;DHT22;35952;52.524;13.340;2023-04-24T06:49:59;24.90;65.40
50067;DHT22;35952;52.524;13.340;2023-04-24T06:52:25;25.20;62.90
50067;DHT22;35952;52.524;13.340;2023-04-24T06:54:51;24.70;61.70
50067;DHT22;35952;52.524;13.340;2023-04-24T06:57:17;24.30;63.20
50067;DHT22;35952;52.524;13.340;2023-04-24T06:59:43;24.40;63.60
50067;DHT22;35952;52.524;13.340;2023-04-24T07:02:08;23.80;62.20
50067;DHT22;35952;52.524;13.340;2023-04-24T07:04:34;23.50;62.90
50067;DHT22;35952;52.524;13.340;2023-04-24T07:07:05;22.80;64.30
50067;DHT22;35952;52.524;13.340;2023-04-24T07:09:31;22.50;66.80
50067;DHT22;35952;52.524;13.340;2023-04-24T07:11:57;22.00;67.40
50067;DHT22;35952;52.524;13.340;2023-04-24T07:14:26;21.40;69.60
50067;DHT22;35952;52.524;13.340;2023-04-24T07:16:51;22.20;69.70
50067;DHT22;35952;52.524;13.340;2023-04-24T07:19:17;23.20;67.30
50067;DHT22;35952;52.524;13.340;2023-04-24T07:21:42;24.50;63.60
50067;DHT22;35952;52.524;13.340;2023-04-24T07:24:08;25.60;57.20
50067;DHT22;35952;52.524;13.340;2023-04-24T07:26:38;24.70;55.70
50067;DHT22;35952;52.524;13.340;2023-04-24T07:29:05;22.90;57.20
50067;DHT22;35952;52.524;13.340;2023-04-24T07:31:31;21.80;60.60
50067;DHT22;35952;52.524;13.340;2023-04-24T07:33:57;21.70;63.30
50067;DHT22;35952;52.524;13.340;2023-04-24T07:36:23;21.60;62.50
50067;DHT22;35952;52.524;13.340;2023-04-24T07:38:49;21.30;63.30
50067;DHT22;35952;52.524;13.340;2023-04-24T07:41:15;22.00;64.60
50067;DHT22;35952;52.524;13.340;2023-04-24T07:43:41;23.00;60.80
50067;DHT22;35952;52.524;13.340;2023-04-24T07:46:10;23.60;60.50
50067;DHT22;35952;52.524;13.340;2023-04-24T07:48:36;25.10;59.30
50067;DHT22;35952;52.524;13.340;2023-04-24T07:51:01;26.40;55.30
50067;DHT22;35952;52.524;13.340;2023-04-24T07:53:27;27.30;51.50
50067;DHT22;35952;52.524;13.340;2023-04-24T07:55:55;28.20;49.90
50067;DHT22;35952;52.524;13.340;2023-04-24T07:58:21;28.60;48.50
50067;DHT22;35952;52.524;13.340;2023-04-24T08:00:46;28.00;47.20
50067;DHT22;35952;52.524;13.340;2023-04-24T08:03:12;27.20;46.30
50067;DHT22;35952;52.524;13.340;2023-04-24T08:05:38;27.00;48.20
50067;DHT22;35952;52.524;13.340;2023-04-24T08:08:04;27.20;47.40
50067;DHT22;35952;52.524;13.340;2023-04-24T08:10:29;26.70;48.30
50067;DHT22;35952;52.524;13.340;2023-04-24T08:12:55;26.70;46.90
50067;DHT22;35952;52.524;13.340;2023-04-24T08:15:20;27.00;47.10
50067;DHT22;35952;52.524;13.340;2023-04-24T08:17:46;26.30;46.40
50067;DHT22;35952;52.524;13.340;2023-04-24T08:20:12;25.30;48.20
50067;DHT22;35952;52.524;13.340;2023-04-24T08:22:41;24.40;49.90
50067;DHT22;35952;52.524;13.340;2023-04-24T08:25:07;24.20;50.10
50067;DHT22;35952;52.524;13.340;2023-04-24T08:27:33;23.60;51.40
50067;DHT22;35952;52.524;13.340;2023-04-24T08:29:58;23.00;51.80
50067;DHT22;35952;52.524;13.340;2023-04-24T08:32:25;22.10;53.30
50067;DHT22;35952;52.524;13.340;2023-04-24T08:34:53;21.80;53.80
50067;DHT22;35952;52.524;13.340;2023-04-24T08:37:18;22.20;54.20
50067;DHT22;35952;52.524;13.340;2023-04-24T08:39:44;23.00;53.10
50067;DHT22;35952;52.524;13.340;2023-04-24T08:42:11;23.20;52.10
50067;DHT22;35952;52.524;13.340;2023-04-24T08:44:38;22.80;52.30
50067;DHT22;35952;52.524;13.340;2023-04-24T08:47:04;22.50;52.90
50067;DHT22;35952;52.524;13.340;2023-04-24T08:49:31;21.60;53.20
50067;DHT22;35952;52.524;13.340;2023-04-24T08:51:56;21.10;55.00
50067;DHT22;35952;52.524;13.340;2023-04-24T08:54:22;21.30;55.70
50067;DHT22;35952;52.524;13.340;2023-04-24T08:56:48;22.60;53.70
50067;DHT22;35952;52.524;13.340;2023-04-24T08:59:15;23.20;53.10
50067;DHT22;35952;52.524;13.340;2023-04-24T09:01:41;23.20;52.70
50067;DHT22;35952;52.524;13.340;2023-04-24T09:04:09;23.30;52.60
50067;DHT22;35952;52.524;13.340;2023-04-24T09:06:38;22.40;51.70
50067;DHT22;35952;52.524;13.340;2023-04-24T09:09:04;21.10;53.50
50067;DHT22;35952;52.524;13.340;2023-04-24T09:11:31;20.80;55.00
50067;DHT22;35952;52.524;13.340;2023-04-24T09:13:58;20.60;56.40
50067;DHT22;35952;52.524;13.340;2023-04-24T09:16:25;20.30;57.60
50067;DHT22;35952;52.524;13.340;2023-04-24T09:18:51;20.00;57.80
50067;DHT22;35952;52.524;13.340;2023-04-24T09:21:16;19.80;59.30
50067;DHT22;35952;52.524;13.340;2023-04-24T09:23:42;19.40;59.80
50067;DHT22;35952;52.524;13.340;2023-04-24T09:26:09;19.20;61.70
50067;DHT22;35952;52.524;13.340;2023-04-24T09:28:42;18.90;64.60
50067;DHT22;35952;52.524;13.340;2023-04-24T09:31:13;18.90;66.70
50067;DHT22;35952;52.524;13.340;2023-04-24T09:33:55;19.70;67.60
50067;DHT22;35952;52.524;13.340;2023-04-24T09:36:30;20.50;68.90
50067;DHT22;35952;52.524;13.340;2023-04-24T09:39:00;20.70;63.90
50067;DHT22;35952;52.524;13.340;2023-04-24T09:41:26;20.30;64.40
50067;DHT22;35952;52.524;13.340;2023-04-24T09:43:56;19.90;65.80
50067;DHT22;35952;52.524;13.340;2023-04-24T09:46:30;19.50;69.30
50067;DHT22;35952;52.524;13.340;2023-04-24T09:48:56;18.90;75.50
50067;DHT22;35952;52.524;13.340;2023-04-24T09:51:36;19.10;77.30
50067;DHT22;35952;52.524;13.340;2023-04-24T09:54:11;19.10;79.00
50067;DHT22;35952;52.524;13.340;2023-04-24T09:56:42;19.00;82.70
50067;DHT22;35952;52.524;13.340;2023-04-24T09:59:08;19.80;74.60
50067;DHT22;35952;52.524;13.340;2023-04-24T10:01:34;19.80;73.00
50067;DHT22;35952;52.524;13.340;2023-04-24T10:03:59;20.40;75.00
50067;DHT22;35952;52.524;13.340;2023-04-24T10:06:33;21.10;69.10
50067;DHT22;35952;52.524;13.340;2023-04-24T10:08:59;21.80;66.90
50067;DHT22;35952;52.524;13.340;2023-04-24T10:11:28;22.20;61.80
50067;DHT22;35952;52.524;13.340;2023-04-24T10:13:54;23.00;60.80
50067;DHT22;35952;52.524;13.340;2023-04-24T10:16:24;23.90;59.50
50067;DHT22;35952;52.524;13.340;2023-04-24T10:18:49;26.40;54.10
50067;DHT22;35952;52.524;13.340;2023-04-24T10:21:18;26.50;50.80
50067;DHT22;35952;52.524;13.340;2023-04-24T10:23:43;25.80;50.90
50067;DHT22;35952;52.524;13.340;2023-04-24T10:26:13;23.60;54.50
50067;DHT22;35952;52.524;13.340;2023-04-24T10:28:45;21.80;57.90
50067;DHT22;35952;52.524;13.340;2023-04-24T10:31:12;21.90;60.50
50067;DHT22;35952;52.524;13.340;2023-04-24T10:33:39;22.40;59.70
50067;DHT22;35952;52.524;13.340;2023-04-24T10:36:08;22.30;59.80
50067;DHT22;35952;52.524;13.340;2023-04-24T10:38:35;20.10;62.60
50067;DHT22;35952;52.524;13.340;2023-04-24T10:41:12;18.90;71.60
50067;DHT22;35952;52.524;13.340;2023-04-24T10:43:42;18.90;75.90
50067;DHT22;35952;52.524;13.340;2023-04-24T10:46:08;18.20;80.50
50067;DHT22;35952;52.524;13.340;2023-04-24T10:48:35;17.70;86.20
50067;DHT22;35952;52.524;13.340;2023-04-24T10:51:01;18.00;90.60
50067;DHT22;35952;52.524;13.340;2023-04-24T10:53:29;17.80;91.60
50067;DHT22;35952;52.524;13.340;2023-04-24T10:58:36;18.80;88.50
50067;DHT22;35952;52.524;13.340;2023-04-24T11:01:02;18.90;85.00
50067;DHT22;35952;52.524;13.340;2023-04-24T11:03:29;19.20;85.20
50067;DHT22;35952;52.524;13.340;2023-04-24T11:11:21;22.40;65.60
50067;DHT22;35952;52.524;13.340;2023-04-24T11:16:30;23.10;60.30
50067;DHT22;35952;52.524;13.340;2023-04-24T11:27:17;22.20;58.10
50067;DHT22;35952;52.524;13.340;2023-04-24T11:35:13;20.70;63.10
50067;DHT22;35952;52.524;13.340;2023-04-24T11:37:41;19.50;77.20
50067;DHT22;35952;52.524;13.340;2023-04-24T11:40:11;18.80;98.00
50067;DHT22;35952;52.524;13.340;2023-04-24T11:42:38;18.20;99.90
50067;DHT22;35952;52.524;13.340;2023-04-24T11:45:11;17.60;99.90
50067;DHT22;35952;52.524;13.340;2023-04-24T11:47:38;17.20;99.90
50067;DHT22;35952;52.524;13.340;2023-04-24T11:50:05;17.10;99.90
50067;DHT22;35952;52.524;13.340;2023-04-24T11:52:31;17.00;99.90
50067;DHT22;35952;52.524;13.340;2023-04-24T11:54:57;17.00;99.90
50067;DHT22;35952;52.524;13.340;2023-04-24T11:57:24;17.30;99.90
50067;DHT22;35952;52.524;13.340;2023-04-24T11:59:53;18.20;99.90
50067;DHT22;35952;52.524;13.340;2023-04-24T12:02:25;19.40;99.90
50067;DHT22;35952;52.524;13.340;2023-04-24T12:04:53;20.10;99.90
50067;DHT22;35952;52.524;13.340;2023-04-24T12:07:19;20.20;99.90
50067;DHT22;35952;52.524;13.340;2023-04-24T12:12:12;20.90;99.90
50067;DHT22;35952;52.524;13.340;2023-04-24T12:14:49;21.30;99.90
50067;DHT22;35952;52.524;13.340;2023-04-24T12:17:16;20.70;99.90
50067;DHT22;35952;52.524;13.340;2023-04-24T12:19:47;21.00;98.90
50067;DHT22;35952;52.524;13.340;2023-04-24T12:22:13;21.50;97.60
50067;DHT22;35952;52.524;13.340;2023-04-24T12:25:01;21.10;95.70
50067;DHT22;35952;52.524;13.340;2023-04-24T12:27:30;20.80;97.10
50067;DHT22;35952;52.524;13.340;2023-04-24T12:29:56;21.60;99.90
50067;DHT22;35952;52.524;13.340;2023-04-24T12:32:23;23.10;84.10
50067;DHT22;35952;52.524;13.340;2023-04-24T12:34:50;24.40;79.60
50067;DHT22;35952;52.524;13.340;2023-04-24T12:37:17;28.00;57.40
50067;DHT22;35952;52.524;13.340;2023-04-24T12:40:19;26.90;49.20
50067;DHT22;35952;52.524;13.340;2023-04-24T12:45:13;26.70;45.60
50067;DHT22;35952;52.524;13.340;2023-04-24T12:47:39;25.30;43.30
50067;DHT22;35952;52.524;13.340;2023-04-24T12:50:13;24.60;45.10
50067;DHT22;35952;52.524;13.340;2023-04-24T12:52:40;23.60;43.40
50067;DHT22;35952;52.524;13.340;2023-04-24T12:55:06;22.90;45.50
50067;DHT22;35952;52.524;13.340;2023-04-24T12:57:37;22.50;50.00
50067;DHT22;35952;52.524;13.340;2023-04-24T13:00:04;22.10;51.90
50067;DHT22;35952;52.524;13.340;2023-04-24T13:02:30;21.90;53.30
50067;DHT22;35952;52.524;13.340;2023-04-24T13:05:00;22.20;55.10
50067;DHT22;35952;52.524;13.340;2023-04-24T13:07:26;22.40;54.20
50067;DHT22;35952;52.524;13.340;2023-04-24T13:09:53;22.30;55.30
50067;DHT22;35952;52.524;13.340;2023-04-24T13:12:19;21.50;54.20
50067;DHT22;35952;52.524;13.340;2023-04-24T13:14:45;22.80;55.50
50067;DHT22;35952;52.524;13.340;2023-04-24T13:17:11;25.10;51.50
50067;DHT22;35952;52.524;13.340;2023-04-24T13:19:39;26.40;44.20
50067;DHT22;35952;52.524;13.340;2023-04-24T13:22:06;25.90;42.10
50067;DHT22;35952;52.524;13.340;2023-04-24T13:24:32;24.50;43.60
50067;DHT22;35952;52.524;13.340;2023-04-24T13:26:58;23.90;44.40
50067;DHT22;35952;52.524;13.340;2023-04-24T13:29:25;22.70;46.50
50067;DHT22;35952;52.524;13.340;2023-04-24T13:31:51;21.80;47.60
50067;DHT22;35952;52.524;13.340;2023-04-24T13:34:19;21.90;49.50
50067;DHT22;35952;52.524;13.340;2023-04-24T13:36:45;22.30;47.20
50067;DHT22;35952;52.524;13.340;2023-04-24T13:39:10;22.30;47.10
50067;DHT22;35952;52.524;13.340;2023-04-24T13:41:36;21.90;47.10
50067;DHT22;35952;52.524;13.340;2023-04-24T13:44:02;21.30;47.90
50067;DHT22;35952;52.524;13.340;2023-04-24T13:46:28;21.40;50.10
50067;DHT22;35952;52.524;13.340;2023-04-24T13:48:54;23.30;50.30
50067;DHT22;35952;52.524;13.340;2023-04-24T13:51:20;23.40;50.20
50067;DHT22;35952;52.524;13.340;2023-04-24T13:53:45;24.60;47.00
50067;DHT22;35952;52.524;13.340;2023-04-24T13:56:11;23.90;42.50
50067;DHT22;35952;52.524;13.340;2023-04-24T13:58:38;23.80;42.20
50067;DHT22;35952;52.524;13.340;2023-04-24T14:01:04;23.60;41.20
50067;DHT22;35952;52.524;13.340;2023-04-24T14:03:33;22.50;42.60
50067;DHT22;35952;52.524;13.340;2023-04-24T14:05:59;21.60;44.30
50067;DHT22;35952;52.524;13.340;2023-04-24T14:08:24;21.20;45.00
50067;DHT22;35952;52.524;13.340;2023-04-24T14:10:50;20.50;45.80
50067;DHT22;35952;52.524;13.340;2023-04-24T14:13:16;20.00;45.90
50067;DHT22;35952;52.524;13.340;2023-04-24T14:15:42;19.90;45.10
50067;DHT22;35952;52.524;13.340;2023-04-24T14:18:08;19.30;45.90
50067;DHT22;35952;52.524;13.340;2023-04-24T14:20:33;19.30;46.10
50067;DHT22;35952;52.524;13.340;2023-04-24T14:22:59;19.60;46.70
50067;DHT22;35952;52.524;13.340;2023-04-24T14:25:25;19.60;45.80
50067;DHT22;35952;52.524;13.340;2023-04-24T14:27:50;20.10;46.90
50067;DHT22;35952;52.524;13.340;2023-04-24T14:30:16;21.20;45.90
50067;DHT22;35952;52.524;13.340;2023-04-24T14:32:44;21.80;43.80
50067;DHT22;35952;52.524;13.340;2023-04-24T14:35:10;22.60;42.80
50067;DHT22;35952;52.524;13.340;2023-04-24T14:37:36;23.90;41.10
50067;DHT22;35952;52.524;13.340;2023-04-24T14:40:02;24.00;39.40
50067;DHT22;35952;52.524;13.340;2023-04-24T14:42:29;22.30;41.60
50067;DHT22;35952;52.524;13.340;2023-04-24T14:44:55;22.40;42.40
50067;DHT22;35952;52.524;13.340;2023-04-24T14:47:20;21.90;43.10
50067;DHT22;35952;52.524;13.340;2023-04-24T14:49:49;21.20;43.20
50067;DHT22;35952;52.524;13.340;2023-04-24T14:52:14;20.60;44.00
50067;DHT22;35952;52.524;13.340;2023-04-24T14:54:41;19.80;44.70
50067;DHT22;35952;52.524;13.340;2023-04-24T14:57:07;19.20;45.50
50067;DHT22;35952;52.524;13.340;2023-04-24T14:59:33;18.90;46.60
50067;DHT22;35952;52.524;13.340;2023-04-24T15:01:58;18.90;47.60
50067;DHT22;35952;52.524;13.340;2023-04-24T15:04:24;18.90;47.70
50067;DHT22;35952;52.524;13.340;2023-04-24T15:06:51;18.80;47.80
50067;DHT22;35952;52.524;13.340;2023-04-24T15:09:17;18.60;48.00
50067;DHT22;35952;52.524;13.340;2023-04-24T15:11:42;18.60;49.20
50067;DHT22;35952;52.524;13.340;2023-04-24T15:14:08;18.60;48.30
50067;DHT22;35952;52.524;13.340;2023-04-24T15:16:33;18.50;48.40
50067;DHT22;35952;52.524;13.340;2023-04-24T15:18:59;18.40;48.50
50067;DHT22;35952;52.524;13.340;2023-04-24T15:21:24;18.50;48.80
50067;DHT22;35952;52.524;13.340;2023-04-24T15:23:51;18.30;49.10
50067;DHT22;35952;52.524;13.340;2023-04-24T15:26:17;18.10;48.90
50067;DHT22;35952;52.524;13.340;2023-04-24T15:28:42;18.00;48.70
50067;DHT22;35952;52.524;13.340;2023-04-24T15:31:08;17.90;48.70
50067;DHT22;35952;52.524;13.340;2023-04-24T15:33:33;17.70;49.30
50067;DHT22;35952;52.524;13.340;2023-04-24T15:35:59;17.50;49.50
50067;DHT22;35952;52.524;13.340;2023-04-24T15:38:25;17.20;50.00
50067;DHT22;35952;52.524;13.340;2023-04-24T15:40:50;17.10;50.60